Time;durP1;ratioP1;P1;durP2;ratioP2;P2;SDS_P1;SDS_P2;PMS_P1;PMS_P2;Temp;Humidity;BMP_temperature;BMP_pressure;BME280_temperature;BME280_humidity;BME280_pressure;Samples;Min_cycle;Max_cycle;Signal;HPM_P1;HPM_P2
2021/10/31 00:00:05;;;;;;;3.07;2.30;;;13.60;54.60;;;;;;5035788;28;20232;-91
2021/10/31 00:02:31;;;;;;;3.43;2.07;;;13.60;54.60;;;;;;5035537;28;20179;-92
2021/10/31 00:04:56;;;;;;;2.43;2.10;;;13.60;54.50;;;;;;5036102;28;20404;-92
2021/10/31 00:07:22;;;;;;;3.30;1.70;;;13.60;54.50;;;;;;5036857;28;20415;-92
2021/10/31 00:09:48;;;;;;;2.63;1.87;;;13.70;54.60;;;;;;5035901;28;20519;-92
2021/10/31 00:12:14;;;;;;;1.93;1.60;;;13.60;54.40;;;;;;5038897;28;20205;-91
2021/10/31 00:14:39;;;;;;;3.00;2.10;;;13.60;54.50;;;;;;5039367;28;20184;-92
2021/10/31 00:17:05;;;;;;;2.27;2.07;;;13.50;54.90;;;;;;5043682;28;20200;-91
2021/10/31 00:19:32;;;;;;;2.30;2.20;;;13.50;55.40;;;;;;5043593;28;20234;-92
2021/10/31 00:21:58;;;;;;;4.03;2.40;;;13.50;56.00;;;;;;5040034;28;20172;-91
2021/10/31 00:24:24;;;;;;;2.60;2.40;;;13.50;56.00;;;;;;5037217;28;20412;-91
2021/10/31 00:26:50;;;;;;;1.77;1.67;;;13.50;56.00;;;;;;5036100;28;20419;-92
2021/10/31 00:29:16;;;;;;;4.27;2.80;;;13.50;55.60;;;;;;5036504;28;20481;-92
2021/10/31 00:31:43;;;;;;;3.70;2.03;;;13.40;56.50;;;;;;5036643;28;20176;-92
2021/10/31 00:34:09;;;;;;;2.37;2.20;;;13.50;56.60;;;;;;5036754;28;20407;-92
2021/10/31 00:36:36;;;;;;;2.20;1.80;;;13.50;57.10;;;;;;5035802;28;20456;-92
2021/10/31 00:39:04;;;;;;;2.37;1.80;;;13.50;57.40;;;;;;5035675;28;20433;-93
2021/10/31 00:41:30;;;;;;;1.73;1.63;;;13.50;57.70;;;;;;5051943;28;20470;-93
2021/10/31 00:43:56;;;;;;;2.40;2.20;;;13.50;58.00;;;;;;5035319;28;20404;-92
2021/10/31 00:46:21;;;;;;;2.00;1.80;;;13.50;58.00;;;;;;5036048;28;20942;-91
2021/10/31 00:48:48;;;;;;;1.83;1.73;;;13.50;58.40;;;;;;5053538;28;20649;-91
2021/10/31 00:51:15;;;;;;;2.50;2.30;;;13.40;58.40;;;;;;5036506;28;20191;-90
2021/10/31 00:53:43;;;;;;;1.60;1.50;;;13.40;58.70;;;;;;5035062;28;20415;-91
2021/10/31 00:56:09;;;;;;;2.03;1.90;;;13.40;59.20;;;;;;5035528;28;20423;-92
2021/10/31 00:58:35;;;;;;;1.90;1.43;;;13.40;59.30;;;;;;5033318;28;20515;-92
2021/10/31 01:01:01;;;;;;;1.60;1.50;;;13.40;59.90;;;;;;5033240;28;20464;-91
2021/10/31 01:03:27;;;;;;;2.50;2.30;;;13.30;60.00;;;;;;5037402;28;20466;-92
2021/10/31 01:06:08;;;;;;;1.63;1.53;;;13.40;60.70;;;;;;5045831;28;20197;-91
2021/10/31 01:08:50;;;;;;;1.90;1.80;;;13.30;60.40;;;;;;5046759;28;20177;-89
2021/10/31 01:11:54;;;;;;;2.00;1.90;;;13.30;60.10;;;;;;5035898;28;20513;-91
2021/10/31 01:14:41;;;;;;;2.30;1.90;;;13.20;60.70;;;;;;5003237;28;20420;-90
2021/10/31 01:17:37;;;;;;;1.70;1.60;;;13.10;60.90;;;;;;5040350;28;20421;-91
2021/10/31 01:20:06;;;;;;;1.80;1.60;;;13.10;61.30;;;;;;5025090;28;20467;-90
2021/10/31 01:23:03;;;;;;;2.30;2.10;;;13.10;61.50;;;;;;5017865;28;20582;-91
2021/10/31 01:25:46;;;;;;;2.27;1.87;;;13.10;61.30;;;;;;5031954;28;20423;-91
2021/10/31 01:28:34;;;;;;;2.57;2.37;;;13.10;60.90;;;;;;5016090;28;20850;-91
2021/10/31 01:31:38;;;;;;;3.30;2.07;;;13.00;61.40;;;;;;5031571;28;20487;-91
2021/10/31 01:34:11;;;;;;;1.97;1.87;;;12.90;61.30;;;;;;5022730;28;20830;-91
2021/10/31 01:36:50;;;;;;;2.33;1.80;;;12.90;62.00;;;;;;5032009;28;20452;-91
2021/10/31 01:39:34;;;;;;;2.10;2.00;;;12.80;62.20;;;;;;5032222;28;20416;-91
2021/10/31 01:42:25;;;;;;;1.73;1.60;;;12.70;62.90;;;;;;5031050;28;20458;-92
2021/10/31 01:45:05;;;;;;;1.80;1.70;;;12.70;63.60;;;;;;5016726;28;20411;-92
2021/10/31 01:47:46;;;;;;;1.67;1.57;;;12.70;63.60;;;;;;5031342;28;20417;-91
2021/10/31 01:50:27;;;;;;;2.13;1.93;;;12.70;63.60;;;;;;5014734;28;20939;-91
2021/10/31 01:53:14;;;;;;;2.37;1.80;;;12.60;63.50;;;;;;5015259;28;20420;-91
2021/10/31 01:55:52;;;;;;;2.07;1.87;;;12.50;63.40;;;;;;5031479;28;20427;-91
2021/10/31 01:58:22;;;;;;;2.00;1.90;;;12.50;63.90;;;;;;5031211;28;20456;-91
2021/10/31 02:00:51;;;;;;;2.40;2.20;;;12.40;64.80;;;;;;5030988;28;20487;-92
2021/10/31 02:03:19;;;;;;;1.70;1.60;;;12.40;64.40;;;;;;5031016;28;20548;-92
2021/10/31 02:05:46;;;;;;;2.03;1.83;;;12.40;64.40;;;;;;5030508;28;20432;-90
2021/10/31 02:08:13;;;;;;;1.80;1.70;;;12.30;64.60;;;;;;5030979;28;20424;-90
2021/10/31 02:10:42;;;;;;;1.90;1.67;;;12.30;64.50;;;;;;5030656;28;20547;-89
2021/10/31 02:13:10;;;;;;;1.80;1.70;;;12.30;64.50;;;;;;5030525;28;20508;-91
2021/10/31 02:15:37;;;;;;;3.77;2.10;;;12.30;64.40;;;;;;5030563;28;20494;-91
2021/10/31 02:18:04;;;;;;;3.43;1.90;;;12.30;63.90;;;;;;5030724;28;20548;-91
2021/10/31 02:20:30;;;;;;;2.30;2.20;;;12.30;63.80;;;;;;5030524;28;20460;-91
2021/10/31 02:22:56;;;;;;;1.87;1.77;;;12.30;63.90;;;;;;5031036;28;20465;-92
2021/10/31 02:25:23;;;;;;;2.60;2.40;;;12.40;63.30;;;;;;5014177;28;20519;-92
2021/10/31 02:27:49;;;;;;;2.60;2.33;;;12.40;62.90;;;;;;5031013;28;20621;-93
2021/10/31 02:30:15;;;;;;;2.40;2.20;;;12.40;62.60;;;;;;5030401;28;20424;-84
2021/10/31 02:32:41;;;;;;;2.30;2.07;;;12.40;62.30;;;;;;5027757;28;20177;-84
2021/10/31 02:35:09;;;;;;;1.53;1.43;;;12.40;61.80;;;;;;5027553;28;20443;-84
2021/10/31 02:37:37;;;;;;;2.60;1.70;;;12.40;62.10;;;;;;5027793;28;20589;-84
2021/10/31 02:40:04;;;;;;;2.23;2.10;;;12.30;62.30;;;;;;5027683;28;20842;-83
2021/10/31 02:42:29;;;;;;;2.10;1.90;;;12.30;62.50;;;;;;5027759;28;20837;-83
2021/10/31 02:44:55;;;;;;;2.37;2.17;;;12.20;63.10;;;;;;5027750;28;20412;-91
2021/10/31 02:47:28;;;;;;;2.47;2.37;;;12.20;63.50;;;;;;5029386;28;20429;-84
2021/10/31 02:49:56;;;;;;;2.67;2.30;;;12.10;63.70;;;;;;5027465;28;20188;-84
2021/10/31 02:52:34;;;;;;;2.30;2.10;;;12.10;63.50;;;;;;5027587;28;20454;-84
2021/10/31 02:55:06;;;;;;;2.33;2.13;;;12.10;63.00;;;;;;5027687;28;20939;-85
2021/10/31 02:57:42;;;;;;;3.33;2.13;;;12.10;63.00;;;;;;5027308;28;20970;-84
2021/10/31 03:00:10;;;;;;;2.50;2.30;;;12.10;63.50;;;;;;5010876;28;20459;-84
2021/10/31 03:02:37;;;;;;;2.53;2.33;;;12.00;64.20;;;;;;5027339;28;20445;-84
2021/10/31 03:05:03;;;;;;;2.47;2.17;;;12.00;64.30;;;;;;5027914;28;20761;-84
2021/10/31 03:07:29;;;;;;;2.50;2.30;;;11.90;64.30;;;;;;5027996;28;20413;-85
2021/10/31 03:09:55;;;;;;;2.83;2.63;;;11.90;64.40;;;;;;5028202;28;20420;-84
2021/10/31 03:12:21;;;;;;;3.17;2.87;;;11.90;64.20;;;;;;5027191;28;20775;-84
2021/10/31 03:14:47;;;;;;;2.90;2.70;;;12.00;64.50;;;;;;5013415;28;20181;-91
2021/10/31 03:17:13;;;;;;;3.00;2.80;;;12.00;64.30;;;;;;5030482;28;20188;-91
2021/10/31 03:19:38;;;;;;;2.80;2.60;;;12.00;64.10;;;;;;5034003;28;20962;-91
2021/10/31 03:22:05;;;;;;;2.90;2.70;;;11.90;64.50;;;;;;5034705;28;20188;-92
2021/10/31 03:24:32;;;;;;;3.60;3.40;;;11.90;64.20;;;;;;5034910;28;20200;-93
2021/10/31 03:26:58;;;;;;;4.00;3.70;;;11.90;64.60;;;;;;5034661;28;20428;-92
2021/10/31 03:29:24;;;;;;;3.60;3.30;;;11.80;64.50;;;;;;5034735;28;20424;-92
2021/10/31 03:31:52;;;;;;;4.00;3.70;;;11.80;64.80;;;;;;5034506;28;20768;-91
2021/10/31 03:34:18;;;;;;;3.43;3.13;;;11.80;65.10;;;;;;5034244;28;20792;-91
2021/10/31 03:36:44;;;;;;;4.63;3.73;;;11.70;64.90;;;;;;5033737;28;20871;-90
2021/10/31 03:39:10;;;;;;;3.60;3.30;;;11.70;65.00;;;;;;5034184;28;20442;-91
2021/10/31 03:41:36;;;;;;;3.10;2.90;;;11.70;65.40;;;;;;5018650;28;20209;-90
2021/10/31 03:44:03;;;;;;;4.77;3.50;;;11.70;65.30;;;;;;5034627;28;20474;-91
2021/10/31 03:46:29;;;;;;;3.37;3.10;;;11.60;65.90;;;;;;5034550;28;20235;-91
2021/10/31 03:48:55;;;;;;;4.60;3.70;;;11.60;65.70;;;;;;5033941;28;20833;-91
2021/10/31 03:51:21;;;;;;;4.47;4.17;;;11.60;65.80;;;;;;5035313;28;20424;-90
2021/10/31 03:53:46;;;;;;;5.73;3.50;;;11.50;65.90;;;;;;5035623;28;20189;-91
2021/10/31 03:56:12;;;;;;;3.80;3.60;;;11.50;66.80;;;;;;5035129;28;20512;-92
2021/10/31 03:58:37;;;;;;;4.13;3.50;;;11.50;66.90;;;;;;5035345;28;20236;-92
2021/10/31 04:01:03;;;;;;;4.50;4.20;;;11.40;67.20;;;;;;5018349;28;20205;-91
2021/10/31 04:03:29;;;;;;;4.17;3.87;;;11.40;67.40;;;;;;5034593;28;20186;-92
2021/10/31 04:05:55;;;;;;;4.33;3.90;;;11.40;67.80;;;;;;5034189;28;20177;-91
2021/10/31 04:08:20;;;;;;;4.87;4.37;;;11.40;67.20;;;;;;5033569;28;20195;-91
2021/10/31 04:10:46;;;;;;;4.50;4.10;;;11.30;67.40;;;;;;5033619;28;20181;-91
2021/10/31 04:13:11;;;;;;;5.33;4.70;;;11.30;67.80;;;;;;5017571;28;20173;-92
2021/10/31 04:15:37;;;;;;;6.77;5.37;;;11.30;68.30;;;;;;5033539;28;20189;-91
2021/10/31 04:18:03;;;;;;;5.27;4.77;;;11.30;68.90;;;;;;5017923;28;20312;-92
2021/10/31 04:20:29;;;;;;;6.20;5.20;;;11.30;68.20;;;;;;5018215;28;20200;-91
2021/10/31 04:22:54;;;;;;;6.03;4.70;;;11.30;67.60;;;;;;5032854;28;20424;-91
2021/10/31 04:25:20;;;;;;;5.13;4.63;;;11.30;67.20;;;;;;5032896;28;20320;-90
2021/10/31 04:27:46;;;;;;;5.60;5.10;;;11.20;67.30;;;;;;5033447;28;20217;-91
2021/10/31 04:30:14;;;;;;;6.50;5.53;;;11.20;67.70;;;;;;5032718;28;20239;-89
2021/10/31 04:32:41;;;;;;;4.93;4.37;;;11.10;68.80;;;;;;5033064;28;20182;-91
2021/10/31 04:35:07;;;;;;;5.57;5.07;;;11.20;68.90;;;;;;5033548;28;20494;-91
2021/10/31 04:37:36;;;;;;;5.43;4.93;;;11.10;68.30;;;;;;5033239;28;20429;-91
2021/10/31 04:40:04;;;;;;;5.40;4.90;;;11.10;68.50;;;;;;5030895;28;20467;-84
2021/10/31 04:42:31;;;;;;;5.50;5.00;;;11.10;69.20;;;;;;5030075;28;20507;-84
2021/10/31 04:44:57;;;;;;;5.37;4.97;;;11.10;68.80;;;;;;5030014;28;20416;-84
2021/10/31 04:47:24;;;;;;;5.27;4.80;;;11.00;69.50;;;;;;5030516;28;20821;-84
2021/10/31 04:49:50;;;;;;;7.90;5.33;;;11.10;69.30;;;;;;5030084;28;20420;-84
2021/10/31 04:52:16;;;;;;;5.37;4.97;;;11.00;69.40;;;;;;5029836;28;20478;-83
2021/10/31 04:54:42;;;;;;;4.17;3.87;;;11.00;69.70;;;;;;5029651;28;20178;-83
2021/10/31 04:57:08;;;;;;;6.60;5.33;;;11.00;69.90;;;;;;5030054;28;20431;-83
2021/10/31 04:59:34;;;;;;;5.30;4.90;;;11.00;70.10;;;;;;5029710;28;20263;-83
2021/10/31 05:02:00;;;;;;;5.40;5.00;;;11.00;70.00;;;;;;5030007;28;20420;-83
2021/10/31 05:04:26;;;;;;;6.27;5.10;;;11.00;70.20;;;;;;5030826;28;20405;-91
2021/10/31 05:06:51;;;;;;;4.97;4.47;;;11.10;70.00;;;;;;5018362;28;20408;-86
2021/10/31 05:09:18;;;;;;;4.80;4.40;;;11.10;69.80;;;;;;5029496;28;20197;-83
2021/10/31 05:11:44;;;;;;;4.50;4.10;;;11.10;69.90;;;;;;5029442;28;20185;-82
2021/10/31 05:14:10;;;;;;;5.40;4.20;;;11.00;70.90;;;;;;5029339;28;20412;-82
2021/10/31 05:16:37;;;;;;;4.07;3.77;;;11.00;70.20;;;;;;5029009;28;20431;-82
2021/10/31 05:19:04;;;;;;;4.70;4.37;;;11.00;70.20;;;;;;5029162;28;20193;-80
2021/10/31 05:21:30;;;;;;;4.83;4.43;;;11.00;70.50;;;;;;5029057;28;20514;-83
2021/10/31 05:23:56;;;;;;;5.40;4.90;;;10.90;70.00;;;;;;5013985;28;20439;-82
2021/10/31 05:26:24;;;;;;;5.03;4.70;;;10.90;70.40;;;;;;5024919;28;20452;-83
2021/10/31 05:28:50;;;;;;;5.80;5.30;;;10.90;71.10;;;;;;5028834;28;20173;-83
2021/10/31 05:31:17;;;;;;;5.17;4.67;;;10.90;71.00;;;;;;5041669;28;20762;-83
2021/10/31 05:33:44;;;;;;;4.27;3.97;;;10.90;71.20;;;;;;5027137;28;20204;-83
2021/10/31 05:36:10;;;;;;;5.17;4.07;;;10.90;70.70;;;;;;5028312;28;20548;-90
2021/10/31 05:38:35;;;;;;;4.23;3.90;;;10.90;70.80;;;;;;5024436;28;20455;-83
2021/10/31 05:41:03;;;;;;;4.33;4.03;;;10.90;71.00;;;;;;5017475;28;20971;-83
2021/10/31 05:43:32;;;;;;;4.80;4.40;;;10.90;70.40;;;;;;5016292;28;20579;-85
2021/10/31 05:45:58;;;;;;;5.17;4.67;;;10.80;71.10;;;;;;5018226;28;20466;-84
2021/10/31 05:48:26;;;;;;;5.60;5.10;;;10.80;71.00;;;;;;5016217;28;20466;-82
2021/10/31 05:50:56;;;;;;;5.00;4.23;;;10.80;71.10;;;;;;5019918;28;20487;-83
2021/10/31 05:53:23;;;;;;;5.20;4.80;;;10.80;71.10;;;;;;5018009;28;20454;-82
2021/10/31 05:55:49;;;;;;;4.63;4.23;;;10.70;71.60;;;;;;5019515;28;20459;-83
2021/10/31 05:58:15;;;;;;;7.47;6.77;;;10.70;72.10;;;;;;5015238;28;20462;-84
2021/10/31 06:00:40;;;;;;;6.27;5.67;;;10.70;71.90;;;;;;5018197;28;20459;-83
2021/10/31 06:03:06;;;;;;;6.90;6.30;;;10.80;71.90;;;;;;5017117;28;20243;-83
2021/10/31 06:05:32;;;;;;;5.87;5.37;;;10.90;72.00;;;;;;5016204;28;20228;-83
2021/10/31 06:07:58;;;;;;;6.90;6.30;;;10.80;71.10;;;;;;5017269;28;20697;-84
2021/10/31 06:10:24;;;;;;;5.57;5.07;;;10.80;71.00;;;;;;5016663;28;20534;-84
2021/10/31 06:12:50;;;;;;;4.70;4.30;;;10.80;71.70;;;;;;5017582;28;20231;-84
2021/10/31 06:15:21;;;;;;;6.63;5.43;;;10.80;71.90;;;;;;5016871;28;20274;-83
2021/10/31 06:17:47;;;;;;;5.47;5.07;;;10.80;71.60;;;;;;5017535;28;20947;-83
2021/10/31 06:20:15;;;;;;;5.60;5.00;;;10.90;71.60;;;;;;5016311;28;20629;-83
2021/10/31 06:22:41;;;;;;;8.20;5.30;;;10.90;72.00;;;;;;5018034;28;20315;-84
2021/10/31 06:25:09;;;;;;;6.30;4.73;;;10.90;71.80;;;;;;5017376;28;20530;-84
2021/10/31 06:27:34;;;;;;;5.33;4.93;;;10.90;70.90;;;;;;5017480;28;20719;-84
2021/10/31 06:30:00;;;;;;;5.00;4.60;;;10.90;71.30;;;;;;5015062;28;20447;-82
2021/10/31 06:32:27;;;;;;;6.50;5.90;;;10.90;71.40;;;;;;5018724;28;20319;-90
2021/10/31 06:34:52;;;;;;;5.80;5.30;;;10.90;71.60;;;;;;5023853;28;20809;-89
2021/10/31 06:37:18;;;;;;;6.50;5.90;;;10.90;72.00;;;;;;5023074;28;20462;-86
2021/10/31 06:39:44;;;;;;;6.70;6.20;;;10.90;71.30;;;;;;5019461;28;20232;-90
2021/10/31 06:42:10;;;;;;;5.73;5.23;;;10.90;71.20;;;;;;5022862;28;21038;-91
2021/10/31 06:44:36;;;;;;;8.90;5.23;;;10.90;72.00;;;;;;5013375;28;20483;-91
2021/10/31 06:47:02;;;;;;;7.70;5.50;;;10.90;71.70;;;;;;5019136;28;20481;-91
2021/10/31 06:49:28;;;;;;;5.83;5.23;;;11.00;72.10;;;;;;5018076;28;20227;-92
2021/10/31 06:51:54;;;;;;;5.30;4.90;;;11.00;71.50;;;;;;5018370;28;20451;-90
2021/10/31 06:54:20;;;;;;;5.70;5.20;;;11.00;71.90;;;;;;5038650;28;20569;-92
2021/10/31 06:56:46;;;;;;;5.90;5.50;;;11.00;71.60;;;;;;5025033;28;20856;-91
2021/10/31 06:59:11;;;;;;;6.50;6.00;;;11.00;71.80;;;;;;5024786;28;20228;-91
2021/10/31 07:01:37;;;;;;;7.70;6.90;;;11.00;71.10;;;;;;5024970;28;20280;-92
2021/10/31 07:04:06;;;;;;;7.40;6.77;;;11.00;71.10;;;;;;5026365;28;20269;-93
2021/10/31 07:06:32;;;;;;;7.97;6.57;;;11.00;72.10;;;;;;5021222;28;20273;-92
2021/10/31 07:08:58;;;;;;;9.03;7.60;;;11.10;71.20;;;;;;5023586;28;20473;-92
2021/10/31 07:11:23;;;;;;;7.40;6.37;;;11.10;70.70;;;;;;5024312;28;20455;-92
2021/10/31 07:13:49;;;;;;;7.57;6.87;;;11.10;70.80;;;;;;5025369;28;20231;-92
2021/10/31 07:16:15;;;;;;;8.20;6.93;;;11.10;70.80;;;;;;5018971;28;20620;-90
2021/10/31 07:18:40;;;;;;;6.60;6.07;;;11.10;71.00;;;;;;5022125;28;20229;-91
2021/10/31 07:21:06;;;;;;;10.20;7.37;;;11.20;70.80;;;;;;5018868;28;20239;-92
2021/10/31 07:23:32;;;;;;;8.63;7.47;;;11.20;70.90;;;;;;5019233;28;20220;-92
2021/10/31 07:25:58;;;;;;;26.63;8.07;;;11.30;71.30;;;;;;5018586;28;20315;-92
2021/10/31 07:28:23;;;;;;;11.33;6.87;;;11.30;71.10;;;;;;5028938;28;20276;-93
2021/10/31 07:30:51;;;;;;;8.20;6.83;;;11.50;70.00;;;;;;5036312;28;20237;-93
2021/10/31 07:33:17;;;;;;;10.43;7.80;;;11.50;69.60;;;;;;5021616;28;20695;-84
2021/10/31 07:35:43;;;;;;;8.20;7.57;;;11.50;70.10;;;;;;5017690;28;20830;-84
2021/10/31 07:38:09;;;;;;;8.37;7.60;;;11.40;69.80;;;;;;5016639;28;20247;-84
2021/10/31 07:40:34;;;;;;;10.10;9.20;;;11.40;68.80;;;;;;5017396;28;20455;-86
2021/10/31 07:43:00;;;;;;;8.53;7.83;;;11.40;68.10;;;;;;5015769;28;20231;-84
2021/10/31 07:45:26;;;;;;;10.83;9.90;;;11.40;68.60;;;;;;5018624;28;20220;-82
2021/10/31 07:47:53;;;;;;;11.27;10.17;;;11.40;68.00;;;;;;5016100;28;20451;-85
2021/10/31 07:50:19;;;;;;;10.07;9.33;;;11.40;68.60;;;;;;5019904;28;20841;-85
2021/10/31 07:52:45;;;;;;;11.77;10.67;;;11.30;67.90;;;;;;5019813;28;20433;-84
2021/10/31 07:55:16;;;;;;;10.77;9.70;;;11.30;67.90;;;;;;5017929;28;20645;-84
2021/10/31 07:57:44;;;;;;;10.20;9.30;;;11.30;68.30;;;;;;5015815;28;20493;-84
2021/10/31 08:00:10;;;;;;;10.00;8.93;;;11.30;68.50;;;;;;5018603;28;20518;-83
2021/10/31 08:02:35;;;;;;;10.83;9.90;;;11.40;67.80;;;;;;5018001;28;20478;-83
2021/10/31 08:05:01;;;;;;;10.37;9.57;;;11.40;68.20;;;;;;5021787;28;20875;-83
2021/10/31 08:07:29;;;;;;;10.37;9.47;;;11.50;68.00;;;;;;5022397;28;20298;-84
2021/10/31 08:09:58;;;;;;;11.07;9.97;;;11.50;68.30;;;;;;5023826;28;20307;-83
2021/10/31 08:12:24;;;;;;;10.77;9.77;;;11.50;67.50;;;;;;5025476;28;20493;-83
2021/10/31 08:14:50;;;;;;;11.57;10.40;;;11.60;67.80;;;;;;5025077;28;20535;-82
2021/10/31 08:17:15;;;;;;;13.97;9.83;;;11.70;67.70;;;;;;5021710;28;20538;-83
2021/10/31 08:19:41;;;;;;;10.50;9.63;;;11.70;66.50;;;;;;5024463;28;20641;-83
2021/10/31 08:22:07;;;;;;;9.37;8.67;;;11.80;66.70;;;;;;5022977;28;20224;-82
2021/10/31 08:24:33;;;;;;;9.33;8.43;;;11.90;66.80;;;;;;5025584;28;20220;-82
2021/10/31 08:26:58;;;;;;;9.07;8.30;;;12.00;67.40;;;;;;5020984;28;20874;-83
2021/10/31 08:29:24;;;;;;;9.30;8.50;;;12.00;66.50;;;;;;5023129;28;20247;-84
2021/10/31 08:31:53;;;;;;;8.87;8.07;;;12.10;66.80;;;;;;5012977;28;20244;-85
2021/10/31 08:34:19;;;;;;;7.97;7.27;;;12.10;66.50;;;;;;5019135;28;20228;-82
2021/10/31 08:36:45;;;;;;;10.10;7.97;;;12.10;65.90;;;;;;5014697;28;20462;-83
2021/10/31 08:39:11;;;;;;;8.70;7.90;;;12.20;64.80;;;;;;5019258;28;20311;-83
2021/10/31 08:41:37;;;;;;;7.50;6.80;;;12.20;65.00;;;;;;5013408;28;20232;-83
2021/10/31 08:44:05;;;;;;;7.57;6.87;;;12.20;64.10;;;;;;5017849;28;20797;-82
2021/10/31 08:46:31;;;;;;;8.10;7.50;;;12.30;64.30;;;;;;5014172;28;20446;-82
2021/10/31 08:48:57;;;;;;;9.90;9.00;;;12.30;65.00;;;;;;5015964;28;20452;-83
2021/10/31 08:51:24;;;;;;;8.60;7.90;;;12.30;63.20;;;;;;5013181;28;20542;-83
2021/10/31 08:53:54;;;;;;;9.40;8.50;;;12.40;64.00;;;;;;5015668;28;20459;-83
2021/10/31 08:56:25;;;;;;;10.17;9.37;;;12.50;64.10;;;;;;4994148;28;20456;-83
2021/10/31 08:58:51;;;;;;;9.47;8.67;;;12.50;64.40;;;;;;4997582;28;20550;-89
2021/10/31 09:01:17;;;;;;;10.17;9.37;;;12.60;64.00;;;;;;4994890;28;20551;-88
2021/10/31 09:03:44;;;;;;;8.83;8.10;;;12.70;64.30;;;;;;4996759;28;20225;-89
2021/10/31 09:06:10;;;;;;;8.50;7.90;;;12.70;63.30;;;;;;4994591;28;20535;-89
2021/10/31 09:08:36;;;;;;;9.10;8.40;;;12.70;63.60;;;;;;4998373;28;20522;-89
2021/10/31 09:11:02;;;;;;;8.57;7.80;;;12.70;63.10;;;;;;4993750;28;21045;-89
2021/10/31 09:13:28;;;;;;;7.90;7.10;;;12.80;63.30;;;;;;4997456;28;20451;-89
2021/10/31 09:15:54;;;;;;;7.73;6.93;;;12.90;62.70;;;;;;4994106;28;20528;-89
2021/10/31 09:18:20;;;;;;;7.77;7.10;;;13.10;60.90;;;;;;4998957;28;20595;-89
2021/10/31 09:20:46;;;;;;;7.10;6.50;;;13.10;61.90;;;;;;5014008;28;20895;-90
2021/10/31 09:23:12;;;;;;;6.40;5.80;;;13.20;61.40;;;;;;5017410;28;20823;-89
2021/10/31 09:25:38;;;;;;;5.60;5.20;;;13.20;61.80;;;;;;5014812;28;20286;-89
2021/10/31 09:28:06;;;;;;;5.37;4.97;;;13.30;61.60;;;;;;5017325;28;20880;-90
2021/10/31 09:30:38;;;;;;;7.50;6.80;;;13.30;61.50;;;;;;5015002;28;20810;-89
2021/10/31 09:33:05;;;;;;;7.30;6.70;;;13.40;61.60;;;;;;5016681;28;20466;-88
2021/10/31 09:35:35;;;;;;;5.73;5.13;;;13.50;61.60;;;;;;5014403;28;20900;-89
2021/10/31 09:38:03;;;;;;;7.13;6.53;;;13.50;61.40;;;;;;5017181;28;20495;-89
2021/10/31 09:40:32;;;;;;;6.17;5.57;;;13.60;60.60;;;;;;5015537;28;20467;-89
2021/10/31 09:43:00;;;;;;;13.53;8.03;;;13.70;61.00;;;;;;5013836;28;20455;-88
2021/10/31 09:45:26;;;;;;;3.80;3.50;;;13.80;59.90;;;;;;5016027;28;20842;-89
2021/10/31 09:47:57;;;;;;;3.90;3.50;;;14.10;55.90;;;;;;5015097;28;20461;-89
2021/10/31 09:50:29;;;;;;;3.10;2.90;;;14.20;57.00;;;;;;5016597;28;20972;-89
2021/10/31 09:52:55;;;;;;;3.80;3.50;;;14.20;57.50;;;;;;5016649;28;20447;-87
2021/10/31 09:55:21;;;;;;;3.50;3.20;;;14.20;57.00;;;;;;5017250;28;20483;-88
2021/10/31 09:57:47;;;;;;;3.40;3.10;;;14.30;56.90;;;;;;5016993;28;20550;-88
2021/10/31 10:00:21;;;;;;;3.20;2.90;;;14.30;56.70;;;;;;5024242;28;20553;-88
2021/10/31 10:05:24;;;;;;;3.87;3.57;;;14.50;56.60;;;;;;5021616;28;20451;-88
2021/10/31 10:08:09;;;;;;;3.13;2.77;;;14.60;54.90;;;;;;5019277;28;20478;-87
2021/10/31 10:10:51;;;;;;;3.23;2.93;;;14.70;54.90;;;;;;5019418;28;20439;-87
2021/10/31 10:13:28;;;;;;;3.60;3.30;;;14.70;54.60;;;;;;5018286;28;20450;-88
2021/10/31 10:16:29;;;;;;;3.03;2.73;;;14.60;55.40;;;;;;5019393;28;21046;-87
2021/10/31 10:18:56;;;;;;;3.77;3.47;;;14.50;55.70;;;;;;5016435;28;20462;-83
2021/10/31 10:21:26;;;;;;;3.37;3.07;;;14.60;55.50;;;;;;5014508;28;20466;-83
2021/10/31 10:23:55;;;;;;;3.40;3.07;;;14.50;55.40;;;;;;5018690;28;20451;-85
2021/10/31 10:26:34;;;;;;;3.13;2.93;;;14.70;53.40;;;;;;5019847;28;20816;-84
2021/10/31 10:29:21;;;;;;;3.67;3.37;;;14.60;54.50;;;;;;5021967;28;20801;-82
2021/10/31 10:31:51;;;;;;;3.07;2.77;;;14.50;55.40;;;;;;5020501;28;20802;-81
2021/10/31 10:34:30;;;;;;;3.67;3.37;;;14.60;54.50;;;;;;5018840;28;20452;-77
2021/10/31 10:36:56;;;;;;;3.63;3.33;;;14.60;54.60;;;;;;5018320;28;20498;-79
2021/10/31 10:39:22;;;;;;;2.87;2.67;;;14.70;54.80;;;;;;5017652;28;20463;-79
2021/10/31 10:41:54;;;;;;;3.17;2.90;;;14.70;54.20;;;;;;5017277;28;21068;-80
2021/10/31 10:44:23;;;;;;;5.03;3.23;;;14.70;54.40;;;;;;5018204;28;20920;-81
2021/10/31 10:47:12;;;;;;;3.00;2.80;;;14.80;54.50;;;;;;5018730;28;20455;-81
2021/10/31 10:49:41;;;;;;;3.97;3.67;;;14.80;54.40;;;;;;5018005;28;20466;-79
2021/10/31 10:52:23;;;;;;;4.13;3.60;;;14.80;54.60;;;;;;5018129;28;20840;-80
2021/10/31 10:55:15;;;;;;;3.10;2.13;;;14.90;53.80;;;;;;5015407;28;20516;-81
2021/10/31 10:57:51;;;;;;;2.77;2.57;;;14.90;53.60;;;;;;5016678;28;20524;-80
2021/10/31 11:00:19;;;;;;;2.67;2.47;;;15.00;53.00;;;;;;5016559;28;20570;-83
2021/10/31 11:02:47;;;;;;;4.03;3.20;;;15.00;53.30;;;;;;5013381;28;20994;-83
2021/10/31 11:05:15;;;;;;;3.20;2.90;;;14.90;53.10;;;;;;5016700;28;20490;-84
2021/10/31 11:08:00;;;;;;;4.17;3.00;;;15.00;52.90;;;;;;5008295;28;20455;-85
2021/10/31 11:10:29;;;;;;;3.10;2.80;;;15.00;52.40;;;;;;5016612;28;21011;-83
2021/10/31 11:12:59;;;;;;;3.00;2.80;;;15.10;51.60;;;;;;5016823;28;20496;-82
2021/10/31 11:15:30;;;;;;;2.60;2.40;;;15.20;51.30;;;;;;5016788;28;20489;-85
2021/10/31 11:18:06;;;;;;;2.70;2.50;;;15.20;51.10;;;;;;5035887;28;20478;-89
2021/10/31 11:20:35;;;;;;;2.80;2.50;;;15.20;51.10;;;;;;5019257;28;20808;-85
2021/10/31 11:23:04;;;;;;;3.00;2.23;;;15.30;51.40;;;;;;5020896;28;20451;-88
2021/10/31 11:25:33;;;;;;;2.30;2.10;;;15.30;51.10;;;;;;5020427;28;20471;-84
2021/10/31 11:28:01;;;;;;;4.90;2.30;;;15.30;51.10;;;;;;5020865;28;20447;-85
2021/10/31 11:30:28;;;;;;;9.90;5.57;;;15.40;50.40;;;;;;5021958;28;20777;-82
2021/10/31 11:32:55;;;;;;;11.40;9.77;;;15.50;50.00;;;;;;5020834;28;20451;-83
2021/10/31 11:35:24;;;;;;;4.13;3.50;;;15.60;49.80;;;;;;5016431;28;20963;-85
2021/10/31 11:38:09;;;;;;;6.93;4.43;;;15.70;46.70;;;;;;5020523;28;20449;-87
2021/10/31 11:40:42;;;;;;;11.63;8.03;;;15.70;47.60;;;;;;5029072;28;20581;-91
2021/10/31 11:43:14;;;;;;;20.47;12.30;;;15.80;49.20;;;;;;5021951;28;20531;-84
2021/10/31 11:45:44;;;;;;;3.13;2.93;;;15.90;47.90;;;;;;5021223;28;20450;-85
2021/10/31 11:48:09;;;;;;;7.33;5.73;;;15.90;47.70;;;;;;5020171;28;20439;-85
2021/10/31 11:50:36;;;;;;;10.43;8.00;;;16.00;46.90;;;;;;5021678;28;20469;-84
2021/10/31 11:53:03;;;;;;;9.77;7.17;;;16.10;47.00;;;;;;5021750;28;20224;-85
2021/10/31 11:55:33;;;;;;;12.57;8.47;;;16.20;46.30;;;;;;5021072;28;20474;-83
2021/10/31 11:58:26;;;;;;;26.03;12.57;;;16.30;44.80;;;;;;5021133;28;20916;-84
2021/10/31 12:00:57;;;;;;;2.87;2.60;;;16.30;45.10;;;;;;5022981;28;20455;-89
2021/10/31 12:03:56;;;;;;;3.30;3.00;;;16.30;44.30;;;;;;5023582;28;20512;-89
2021/10/31 12:06:22;;;;;;;7.13;4.40;;;16.30;46.10;;;;;;5022105;28;20473;-89
2021/10/31 12:08:55;;;;;;;5.07;4.03;;;16.50;45.90;;;;;;5023470;28;20526;-83
2021/10/31 12:11:33;;;;;;;3.10;2.67;;;16.60;41.10;;;;;;5020810;28;20886;-84
2021/10/31 12:14:06;;;;;;;2.63;2.40;;;16.60;40.10;;;;;;5020942;28;20577;-84
2021/10/31 12:16:52;;;;;;;5.53;3.60;;;16.60;40.50;;;;;;5023180;28;20462;-84
2021/10/31 12:19:44;;;;;;;4.30;3.90;;;16.70;39.50;;;;;;5020683;28;20547;-84
2021/10/31 12:22:34;;;;;;;4.33;3.93;;;16.70;40.70;;;;;;5019707;28;20442;-83
2021/10/31 12:25:07;;;;;;;7.90;5.03;;;16.70;40.80;;;;;;5023686;28;20443;-82
2021/10/31 12:28:00;;;;;;;12.00;9.30;;;16.70;41.80;;;;;;5021141;28;20940;-85
2021/10/31 12:30:31;;;;;;;4.50;2.87;;;16.80;42.70;;;;;;5022085;28;20501;-83
2021/10/31 12:33:03;;;;;;;2.30;2.10;;;16.90;39.40;;;;;;5022944;28;20468;-85
2021/10/31 12:35:34;;;;;;;2.30;2.10;;;16.80;40.00;;;;;;5022107;28;20451;-84
2021/10/31 12:38:18;;;;;;;2.23;2.03;;;16.80;40.30;;;;;;5022010;28;20478;-85
2021/10/31 12:41:17;;;;;;;3.40;2.50;;;16.70;39.90;;;;;;5023505;28;20474;-84
2021/10/31 12:43:44;;;;;;;3.30;2.73;;;16.70;38.30;;;;;;5030655;28;20431;-85
2021/10/31 12:46:20;;;;;;;2.63;2.43;;;16.70;39.40;;;;;;5025438;28;20494;-85
2021/10/31 12:48:48;;;;;;;2.27;2.10;;;16.70;39.30;;;;;;5023618;28;20454;-85
2021/10/31 12:51:18;;;;;;;2.00;1.80;;;16.80;38.40;;;;;;5022358;28;20451;-84
2021/10/31 12:53:44;;;;;;;2.50;2.30;;;16.80;39.30;;;;;;5020593;28;20455;-84
2021/10/31 12:56:10;;;;;;;2.97;2.67;;;16.70;39.20;;;;;;5019806;28;20505;-85
2021/10/31 12:58:36;;;;;;;2.63;2.43;;;16.70;39.10;;;;;;5020192;28;20224;-85